Time;durP1;ratioP1;P1;durP2;ratioP2;P2;SDS_P1;SDS_P2;PMS_P1;PMS_P2;Temp;Humidity;BMP_temperature;BMP_pressure;BME280_temperature;BME280_humidity;BME280_pressure;Samples;Min_cycle;Max_cycle;Signal;HPM_P1;HPM_P2
2022/09/23 00:00:01;;;;;;;6.82;5.68;;;16.50;90.90;;;;;;5015061;28;20422;-74
2022/09/23 00:02:26;;;;;;;7.97;5.80;;;16.50;91.00;;;;;;5016518;28;20022;-73
2022/09/23 00:04:52;;;;;;;9.50;5.78;;;16.50;91.10;;;;;;5016477;28;20026;-74
2022/09/23 00:07:17;;;;;;;9.35;6.07;;;16.40;91.00;;;;;;5016411;28;20394;-74
2022/09/23 00:09:43;;;;;;;10.52;6.00;;;16.50;90.90;;;;;;5016508;28;20502;-73
2022/09/23 00:12:09;;;;;;;13.48;7.03;;;16.50;91.00;;;;;;5015952;28;20383;-74
2022/09/23 00:14:37;;;;;;;7.35;6.10;;;16.40;91.00;;;;;;5014633;28;20483;-73
2022/09/23 00:17:03;;;;;;;9.25;5.95;;;16.40;91.00;;;;;;5016343;28;20050;-74
2022/09/23 00:19:28;;;;;;;10.48;5.82;;;16.40;91.20;;;;;;5015048;28;20057;-73
2022/09/23 00:21:55;;;;;;;6.47;5.50;;;16.40;91.30;;;;;;5015989;28;20030;-74
2022/09/23 00:24:21;;;;;;;7.00;5.20;;;16.40;91.30;;;;;;5016222;28;20061;-74
2022/09/23 00:26:47;;;;;;;11.25;5.72;;;16.40;91.30;;;;;;5015864;28;20383;-74
2022/09/23 00:29:12;;;;;;;8.57;5.63;;;16.40;91.20;;;;;;5015848;28;20034;-74
2022/09/23 00:31:38;;;;;;;6.97;4.95;;;16.40;91.20;;;;;;5015981;28;20028;-75
2022/09/23 00:34:03;;;;;;;5.90;4.95;;;16.40;91.30;;;;;;5015770;28;20026;-75
2022/09/23 00:36:31;;;;;;;7.47;5.15;;;16.30;91.20;;;;;;5014484;28;20029;-74
2022/09/23 00:38:57;;;;;;;6.93;5.25;;;16.30;91.10;;;;;;5015908;28;20030;-74
2022/09/23 00:41:23;;;;;;;6.55;5.07;;;16.30;91.00;;;;;;5015688;28;20080;-74
2022/09/23 00:43:53;;;;;;;7.35;5.03;;;16.30;91.00;;;;;;5015326;28;20497;-74
2022/09/23 00:46:32;;;;;;;11.23;4.97;;;16.30;91.20;;;;;;5015405;28;20286;-74
2022/09/23 00:49:07;;;;;;;6.85;4.88;;;16.20;91.10;;;;;;5015083;28;20026;-74
2022/09/23 00:51:38;;;;;;;6.65;5.38;;;16.20;91.10;;;;;;5015538;28;20080;-74
2022/09/23 00:54:05;;;;;;;6.65;4.82;;;16.20;91.40;;;;;;5014865;28;20053;-74
2022/09/23 00:56:31;;;;;;;8.13;5.47;;;16.20;91.10;;;;;;5015946;28;20382;-72
2022/09/23 00:58:58;;;;;;;10.45;5.18;;;16.20;91.30;;;;;;5015635;28;20018;-72
2022/09/23 01:01:24;;;;;;;10.05;5.70;;;16.10;91.40;;;;;;5015749;28;20152;-72
2022/09/23 01:03:50;;;;;;;6.50;5.13;;;16.10;91.00;;;;;;5014340;28;20430;-72
2022/09/23 01:06:16;;;;;;;6.65;5.03;;;16.10;91.20;;;;;;5015202;28;20026;-71
2022/09/23 01:08:44;;;;;;;6.40;5.70;;;16.10;91.30;;;;;;5015254;28;20028;-71
2022/09/23 01:11:22;;;;;;;10.43;6.32;;;16.10;91.30;;;;;;5015339;28;20018;-71
2022/09/23 01:13:54;;;;;;;9.00;6.15;;;16.10;91.20;;;;;;5014206;28;20026;-72
2022/09/23 01:16:54;;;;;;;8.57;5.88;;;16.10;91.10;;;;;;5013650;28;20046;-72
2022/09/23 01:19:37;;;;;;;5.85;5.25;;;16.10;91.00;;;;;;5015180;28;20111;-72
2022/09/23 01:22:31;;;;;;;7.32;5.40;;;16.10;90.90;;;;;;5015176;28;20041;-72
2022/09/23 01:25:54;;;;;;;6.35;5.72;;;16.00;90.90;;;;;;5015014;28;20100;-73
2022/09/23 01:28:23;;;;;;;;;;;16.10;91.00;;;;;;4972734;28;20037;-74
2022/09/23 01:31:27;;;;;;;8.75;5.28;;;16.10;91.10;;;;;;5013559;28;19982;-73
2022/09/23 01:34:03;;;;;;;7.93;5.65;;;16.00;91.10;;;;;;5014381;28;20065;-74
2022/09/23 01:36:38;;;;;;;6.18;5.10;;;15.90;91.30;;;;;;5014676;28;20084;-75
2022/09/23 01:39:15;;;;;;;6.97;5.43;;;15.90;91.20;;;;;;5014659;28;20030;-74
2022/09/23 01:41:53;;;;;;;9.63;5.50;;;16.00;91.30;;;;;;5014401;28;20364;-74
2022/09/23 01:44:21;;;;;;;6.38;5.30;;;15.90;91.20;;;;;;5014696;28;20554;-75
2022/09/23 01:46:59;;;;;;;6.47;5.57;;;15.90;91.30;;;;;;5014325;28;20462;-74
2022/09/23 01:49:37;;;;;;;6.72;5.38;;;15.80;91.30;;;;;;5014498;28;20033;-75
2022/09/23 01:52:13;;;;;;;7.95;5.35;;;15.80;91.40;;;;;;5014474;28;20104;-74
2022/09/23 01:54:46;;;;;;;7.63;5.32;;;15.90;91.30;;;;;;5019653;28;20124;-75
2022/09/23 01:57:31;;;;;;;11.23;5.68;;;15.80;91.10;;;;;;5027417;28;20014;-74
2022/09/23 02:00:07;;;;;;;8.77;5.30;;;15.80;91.20;;;;;;5031923;28;20017;-75
2022/09/23 02:02:36;;;;;;;6.28;5.07;;;15.80;91.40;;;;;;5032832;28;20032;-74
2022/09/23 02:05:33;;;;;;;6.60;5.60;;;15.80;91.40;;;;;;5032679;28;20021;-74
2022/09/23 02:08:05;;;;;;;6.57;5.20;;;15.80;91.30;;;;;;5032535;28;20442;-75
2022/09/23 02:10:45;;;;;;;7.05;5.10;;;15.80;91.20;;;;;;5033482;28;20025;-74
2022/09/23 02:13:38;;;;;;;6.30;5.40;;;15.80;91.20;;;;;;5032794;28;20390;-74
2022/09/23 02:16:24;;;;;;;7.05;5.53;;;15.80;91.20;;;;;;5034138;28;20037;-71
2022/09/23 02:19:02;;;;;;;6.43;5.30;;;15.70;91.40;;;;;;5032631;28;20028;-74
2022/09/23 02:21:33;;;;;;;8.40;5.80;;;15.70;91.40;;;;;;5032658;28;20024;-72
2022/09/23 02:24:15;;;;;;;8.10;5.32;;;15.70;91.50;;;;;;5033634;28;20473;-72
2022/09/23 02:27:19;;;;;;;7.78;5.47;;;15.70;91.60;;;;;;5033404;28;20025;-71
2022/09/23 02:29:56;;;;;;;7.47;5.70;;;15.80;91.50;;;;;;5011280;28;20030;-72
2022/09/23 02:32:55;;;;;;;6.18;5.28;;;15.80;91.60;;;;;;5030494;28;20049;-73
2022/09/23 02:35:33;;;;;;;6.40;5.03;;;15.70;91.60;;;;;;5033371;28;20065;-72
2022/09/23 02:38:20;;;;;;;8.45;5.65;;;15.80;91.80;;;;;;5033418;28;20475;-72
2022/09/23 02:41:11;;;;;;;8.32;5.60;;;15.70;91.70;;;;;;5031924;28;20021;-72
2022/09/23 02:43:41;;;;;;;7.30;6.38;;;15.70;91.80;;;;;;5033186;28;20026;-72
2022/09/23 02:46:08;;;;;;;6.97;5.68;;;15.70;91.30;;;;;;5033141;28;20411;-71
2022/09/23 02:48:50;;;;;;;8.57;6.30;;;15.70;91.10;;;;;;5033195;28;20108;-71
2022/09/23 02:51:15;;;;;;;8.38;6.07;;;15.70;91.30;;;;;;5033207;28;20475;-74
2022/09/23 02:53:42;;;;;;;8.32;5.75;;;15.80;91.30;;;;;;5031681;28;20032;-71
2022/09/23 02:56:16;;;;;;;7.78;6.13;;;15.70;91.60;;;;;;5032970;28;20029;-71
2022/09/23 02:58:42;;;;;;;6.95;6.25;;;15.70;91.90;;;;;;5031790;28;20486;-72
2022/09/23 03:01:33;;;;;;;6.55;5.85;;;15.70;91.80;;;;;;5033007;28;20032;-72
2022/09/23 03:04:26;;;;;;;6.80;5.82;;;15.70;91.80;;;;;;5033111;28;20053;-72
2022/09/23 03:06:58;;;;;;;7.80;6.20;;;15.70;92.00;;;;;;5033083;28;20025;-71
2022/09/23 03:09:30;;;;;;;10.05;5.90;;;15.70;92.10;;;;;;5032506;28;20022;-72
2022/09/23 03:12:12;;;;;;;9.70;6.55;;;15.70;92.00;;;;;;5033051;28;20028;-73
2022/09/23 03:15:01;;;;;;;7.32;6.60;;;15.70;92.00;;;;;;5032536;28;20037;-71
2022/09/23 03:17:42;;;;;;;7.43;6.07;;;15.80;91.90;;;;;;5032790;28;20027;-73
2022/09/23 03:20:14;;;;;;;8.25;5.97;;;15.70;91.70;;;;;;5032956;28;20051;-71
2022/09/23 03:22:45;;;;;;;10.63;6.43;;;15.70;91.80;;;;;;5032629;28;20032;-74
2022/09/23 03:25:14;;;;;;;8.52;5.88;;;15.70;91.80;;;;;;5032753;28;20072;-74
2022/09/23 03:27:42;;;;;;;6.30;5.43;;;15.70;91.80;;;;;;5036061;28;20556;-74
2022/09/23 03:30:09;;;;;;;7.05;5.28;;;15.70;91.80;;;;;;5036806;28;20034;-74
2022/09/23 03:32:37;;;;;;;8.02;5.95;;;15.70;91.80;;;;;;5037103;28;20029;-74
2022/09/23 03:35:04;;;;;;;7.18;5.78;;;15.70;91.90;;;;;;5036730;28;20104;-73
2022/09/23 03:37:36;;;;;;;8.05;6.03;;;15.70;91.90;;;;;;5035293;28;20075;-71
2022/09/23 03:40:21;;;;;;;8.90;6.15;;;15.70;91.70;;;;;;5036839;28;20022;-71
2022/09/23 03:42:47;;;;;;;7.10;5.93;;;15.70;91.50;;;;;;5036713;28;20053;-71
2022/09/23 03:45:17;;;;;;;8.95;6.38;;;15.60;91.50;;;;;;5036334;28;20064;-72
2022/09/23 03:47:44;;;;;;;9.13;6.07;;;15.70;91.70;;;;;;5036551;28;20511;-72
2022/09/23 03:50:12;;;;;;;6.43;5.82;;;15.70;91.70;;;;;;5036850;28;20036;-71
2022/09/23 03:52:38;;;;;;;7.47;6.05;;;15.70;91.90;;;;;;5036231;28;20445;-71
2022/09/23 03:55:07;;;;;;;9.45;6.18;;;15.70;91.70;;;;;;5036502;28;20030;-71
2022/09/23 03:57:32;;;;;;;7.45;5.43;;;15.70;91.70;;;;;;5036914;28;20020;-73
2022/09/23 03:59:58;;;;;;;9.27;6.13;;;15.70;91.60;;;;;;5036301;28;20029;-72
2022/09/23 04:02:25;;;;;;;8.20;6.50;;;15.70;91.60;;;;;;5036342;28;20029;-72
2022/09/23 04:04:51;;;;;;;11.48;6.93;;;15.70;91.40;;;;;;5036480;28;20103;-72
2022/09/23 04:07:17;;;;;;;13.45;8.00;;;15.70;91.60;;;;;;5036306;28;20060;-73
2022/09/23 04:09:43;;;;;;;11.23;7.63;;;15.70;91.50;;;;;;5036341;28;20040;-72
2022/09/23 04:12:12;;;;;;;12.60;7.25;;;15.70;91.50;;;;;;5027509;28;20418;-72
2022/09/23 04:14:38;;;;;;;11.00;6.97;;;15.70;91.60;;;;;;5020072;28;20033;-72
2022/09/23 04:17:04;;;;;;;9.02;7.07;;;15.70;91.70;;;;;;5021999;28;20040;-71
2022/09/23 04:19:29;;;;;;;8.90;6.15;;;15.70;91.60;;;;;;5040448;28;20079;-73
2022/09/23 04:21:55;;;;;;;10.57;6.47;;;15.70;91.70;;;;;;5041165;28;20034;-71
2022/09/23 04:24:20;;;;;;;10.93;5.90;;;15.70;91.60;;;;;;5026118;28;20454;-71
2022/09/23 04:26:50;;;;;;;9.10;6.47;;;15.70;91.40;;;;;;5031378;28;20116;-72
2022/09/23 04:29:15;;;;;;;9.07;6.07;;;15.60;91.60;;;;;;5020690;28;20021;-71
2022/09/23 04:31:41;;;;;;;12.07;6.60;;;15.70;91.70;;;;;;5035569;28;20091;-71
2022/09/23 04:34:06;;;;;;;6.82;5.70;;;15.70;91.50;;;;;;5034450;28;20031;-71
2022/09/23 04:36:32;;;;;;;9.18;5.20;;;15.60;91.90;;;;;;5033249;28;20121;-71
2022/09/23 04:38:58;;;;;;;9.90;5.80;;;15.80;91.30;;;;;;5013293;28;20755;-71
2022/09/23 04:41:23;;;;;;;8.02;5.63;;;15.70;91.40;;;;;;5023993;28;20038;-73
2022/09/23 04:43:49;;;;;;;9.38;5.53;;;15.70;91.40;;;;;;5046801;28;20034;-73
2022/09/23 04:46:15;;;;;;;8.60;5.65;;;15.70;91.10;;;;;;5017966;28;20030;-73
2022/09/23 04:48:41;;;;;;;8.27;5.57;;;15.80;91.00;;;;;;5025322;28;20472;-74
2022/09/23 04:51:13;;;;;;;7.55;5.72;;;15.80;90.90;;;;;;5015771;28;20414;-72
2022/09/23 04:53:42;;;;;;;8.75;5.70;;;15.80;91.00;;;;;;5016755;28;20029;-74
2022/09/23 04:56:15;;;;;;;8.00;6.15;;;15.70;90.90;;;;;;5015156;28;20108;-73
2022/09/23 04:58:42;;;;;;;8.77;6.15;;;15.70;91.00;;;;;;5018522;28;20092;-73
2022/09/23 05:01:09;;;;;;;11.32;6.43;;;15.60;91.00;;;;;;5016815;28;20033;-73
2022/09/23 05:03:34;;;;;;;8.15;5.88;;;15.10;90.70;;;;;;5026727;28;20398;-74
2022/09/23 05:06:00;;;;;;;8.45;5.65;;;14.20;92.10;;;;;;5033341;28;20191;-72
2022/09/23 05:08:26;;;;;;;9.63;6.65;;;13.80;93.00;;;;;;5032879;28;20466;-74
2022/09/23 05:10:57;;;;;;;12.75;6.55;;;14.40;91.80;;;;;;5035212;28;20477;-74
2022/09/23 05:13:22;;;;;;;10.73;6.68;;;14.80;91.00;;;;;;5035043;28;20053;-74
2022/09/23 05:15:48;;;;;;;6.80;6.10;;;14.30;91.70;;;;;;5034341;28;20084;-72
2022/09/23 05:18:17;;;;;;;9.80;6.30;;;13.60;93.50;;;;;;5025383;28;20076;-73
2022/09/23 05:20:42;;;;;;;9.43;6.03;;;13.30;94.30;;;;;;5021731;28;20160;-72
2022/09/23 05:23:08;;;;;;;8.65;5.78;;;13.10;94.90;;;;;;5014001;28;20060;-72
2022/09/23 05:25:34;;;;;;;9.48;6.07;;;13.10;95.20;;;;;;5025167;28;20029;-73
2022/09/23 05:27:59;;;;;;;8.18;5.65;;;13.00;95.20;;;;;;5040934;28;20513;-73
2022/09/23 05:30:25;;;;;;;10.13;6.07;;;12.90;95.50;;;;;;5009700;28;20037;-72
2022/09/23 05:32:50;;;;;;;13.55;6.63;;;12.90;95.80;;;;;;5015400;28;20029;-74
2022/09/23 05:35:16;;;;;;;10.20;6.82;;;12.80;96.20;;;;;;5019175;28;20033;-74
2022/09/23 05:37:42;;;;;;;7.75;6.43;;;12.80;96.20;;;;;;5027206;28;20033;-74
2022/09/23 05:40:08;;;;;;;8.55;7.00;;;12.70;96.60;;;;;;5015699;28;20030;-74
2022/09/23 05:42:34;;;;;;;10.93;6.93;;;12.70;96.80;;;;;;5018113;28;20013;-72
2022/09/23 05:44:59;;;;;;;9.65;7.10;;;12.70;96.80;;;;;;5026410;28;20349;-74
2022/09/23 05:47:25;;;;;;;6.20;4.80;;;12.80;96.50;;;;;;5012385;28;20387;-73
2022/09/23 05:49:50;;;;;;;5.13;3.72;;;13.60;97.10;;;;;;5029735;28;20076;-73
2022/09/23 05:52:16;;;;;;;9.13;5.82;;;14.40;96.10;;;;;;5020115;28;20542;-72
2022/09/23 05:54:42;;;;;;;9.80;5.63;;;15.00;94.20;;;;;;5018511;28;20022;-73
2022/09/23 05:57:08;;;;;;;5.32;4.82;;;15.40;93.20;;;;;;5031195;28;20103;-74
2022/09/23 05:59:33;;;;;;;12.13;6.05;;;15.60;92.40;;;;;;5012971;28;20045;-70
2022/09/23 06:02:00;;;;;;;8.68;5.75;;;15.80;91.40;;;;;;5016078;28;20069;-70
2022/09/23 06:04:25;;;;;;;9.10;5.22;;;15.90;91.10;;;;;;5027078;28;20025;-71
2022/09/23 06:06:51;;;;;;;8.25;6.30;;;15.90;91.10;;;;;;5017732;28;20080;-70
2022/09/23 06:09:17;;;;;;;7.60;5.35;;;16.00;90.70;;;;;;5018634;28;20026;-71
2022/09/23 06:11:43;;;;;;;8.05;5.75;;;16.10;90.70;;;;;;5024288;28;20029;-71
2022/09/23 06:14:11;;;;;;;8.57;5.97;;;16.20;90.40;;;;;;5017583;28;20034;-71
2022/09/23 06:16:37;;;;;;;9.55;6.40;;;16.30;90.00;;;;;;5031859;28;20033;-71
2022/09/23 06:19:06;;;;;;;9.60;6.43;;;16.20;89.90;;;;;;5014033;28;20022;-72
2022/09/23 06:21:34;;;;;;;7.35;5.07;;;16.30;89.60;;;;;;5014010;28;20030;-72
2022/09/23 06:24:00;;;;;;;10.63;5.90;;;16.30;89.60;;;;;;5013812;28;20026;-71
2022/09/23 06:26:26;;;;;;;6.28;4.57;;;16.20;90.00;;;;;;5019501;28;20048;-71
2022/09/23 06:28:51;;;;;;;7.32;4.25;;;16.30;90.20;;;;;;5022775;28;20084;-71
2022/09/23 06:31:17;;;;;;;8.43;4.22;;;16.30;90.50;;;;;;5029177;28;20470;-71
2022/09/23 06:33:43;;;;;;;5.38;4.88;;;16.40;90.70;;;;;;5019122;28;20026;-71
2022/09/23 06:36:10;;;;;;;7.18;4.47;;;16.40;90.50;;;;;;5027979;28;20037;-72
2022/09/23 06:38:40;;;;;;;6.05;4.47;;;16.60;90.10;;;;;;5014764;28;20014;-71
2022/09/23 06:41:06;;;;;;;7.50;4.22;;;16.70;90.00;;;;;;5012437;28;20107;-71
2022/09/23 06:43:32;;;;;;;9.63;4.40;;;16.60;90.30;;;;;;5016230;28;20487;-71
2022/09/23 06:45:59;;;;;;;9.40;5.25;;;16.60;90.40;;;;;;5012882;28;20037;-71
2022/09/23 06:48:27;;;;;;;9.95;5.07;;;16.60;90.70;;;;;;5015563;28;20030;-73
2022/09/23 06:50:53;;;;;;;10.05;4.35;;;16.60;90.50;;;;;;5013434;28;20029;-72
2022/09/23 06:53:22;;;;;;;11.50;4.75;;;16.70;90.60;;;;;;5025594;28;20031;-72
2022/09/23 06:55:48;;;;;;;7.65;3.55;;;16.60;90.80;;;;;;5018941;28;20030;-73
2022/09/23 06:58:14;;;;;;;5.85;3.20;;;16.60;91.20;;;;;;5019280;28;20030;-71
2022/09/23 07:00:40;;;;;;;9.55;3.83;;;16.50;91.40;;;;;;5017773;28;20067;-71
2022/09/23 07:03:07;;;;;;;6.40;3.70;;;16.60;91.50;;;;;;5012956;28;20379;-72
2022/09/23 07:05:33;;;;;;;10.48;3.92;;;16.60;91.30;;;;;;5014414;28;20021;-71
2022/09/23 07:07:59;;;;;;;6.72;4.50;;;16.70;91.10;;;;;;5015996;28;20021;-72
2022/09/23 07:10:26;;;;;;;8.18;5.55;;;16.70;90.50;;;;;;5011131;28;20026;-71
2022/09/23 07:12:52;;;;;;;13.40;7.63;;;16.80;89.40;;;;;;5012248;28;20025;-71
2022/09/23 07:15:18;;;;;;;8.85;6.30;;;16.90;88.20;;;;;;5015915;28;20095;-73
2022/09/23 07:17:43;;;;;;;8.38;5.50;;;16.90;87.70;;;;;;5021291;28;20030;-72
2022/09/23 07:20:10;;;;;;;8.85;5.15;;;17.00;87.50;;;;;;5014047;28;20037;-71
2022/09/23 07:22:36;;;;;;;8.40;5.05;;;16.90;87.70;;;;;;5028116;28;20106;-71
2022/09/23 07:25:02;;;;;;;9.15;5.25;;;16.90;87.70;;;;;;5032643;28;20021;-71
2022/09/23 07:27:28;;;;;;;9.82;4.95;;;17.00;87.50;;;;;;5032595;28;20116;-71
2022/09/23 07:29:53;;;;;;;8.98;5.38;;;16.90;87.50;;;;;;5016488;28;20032;-71
2022/09/23 07:32:21;;;;;;;7.45;5.28;;;16.90;87.80;;;;;;5022458;28;20026;-71
2022/09/23 07:34:47;;;;;;;7.68;5.35;;;16.90;87.70;;;;;;5012860;28;20582;-71
2022/09/23 07:37:13;;;;;;;10.82;4.95;;;16.90;87.50;;;;;;5011610;28;20026;-71
2022/09/23 07:39:40;;;;;;;7.60;5.20;;;16.90;87.50;;;;;;5014960;28;20111;-71
2022/09/23 07:42:06;;;;;;;8.25;4.80;;;16.90;87.50;;;;;;5015138;28;20028;-72
2022/09/23 07:44:32;;;;;;;10.00;5.40;;;16.90;87.40;;;;;;5032245;28;20034;-72
2022/09/23 07:46:58;;;;;;;7.55;4.50;;;16.90;87.70;;;;;;5025434;28;20038;-71
2022/09/23 07:49:24;;;;;;;9.25;5.55;;;16.90;88.10;;;;;;5030860;28;20022;-72
2022/09/23 07:51:51;;;;;;;8.10;5.28;;;16.90;88.10;;;;;;5029171;28;20028;-72
2022/09/23 07:54:17;;;;;;;11.38;5.03;;;16.90;87.90;;;;;;5012573;28;20030;-72
2022/09/23 07:56:43;;;;;;;8.50;5.00;;;17.00;88.00;;;;;;5019886;28;20037;-71
2022/09/23 07:59:14;;;;;;;8.15;4.90;;;17.00;88.30;;;;;;5013604;28;20065;-71
2022/09/23 08:01:42;;;;;;;6.80;4.78;;;17.00;88.20;;;;;;5018428;28;20018;-71
2022/09/23 08:04:16;;;;;;;7.95;4.80;;;17.00;88.30;;;;;;5032468;28;20026;-73
2022/09/23 08:06:44;;;;;;;11.25;5.10;;;17.00;88.40;;;;;;5026900;28;20025;-73
2022/09/23 08:09:10;;;;;;;7.35;4.85;;;17.00;88.20;;;;;;5018325;28;20033;-73
2022/09/23 08:11:38;;;;;;;10.82;4.38;;;17.00;88.10;;;;;;5030422;28;20018;-71
2022/09/23 08:14:04;;;;;;;8.15;4.80;;;17.00;88.60;;;;;;5023208;28;20026;-72
2022/09/23 08:16:29;;;;;;;7.38;4.75;;;17.00;88.60;;;;;;5014607;28;20065;-73
2022/09/23 08:18:55;;;;;;;7.30;5.28;;;17.00;88.80;;;;;;5034530;28;20056;-72
2022/09/23 08:21:21;;;;;;;8.52;5.63;;;17.00;88.80;;;;;;5035968;28;20025;-72
2022/09/23 08:23:47;;;;;;;8.88;5.50;;;17.00;88.60;;;;;;5036018;28;20053;-73
2022/09/23 08:26:13;;;;;;;9.57;5.43;;;17.10;89.10;;;;;;5035888;28;20021;-72
2022/09/23 08:28:39;;;;;;;8.57;5.32;;;17.10;89.30;;;;;;5018624;28;20116;-73
2022/09/23 08:31:07;;;;;;;9.85;5.97;;;17.00;89.50;;;;;;5025152;28;20018;-73
2022/09/23 08:33:32;;;;;;;9.98;5.70;;;17.00;89.60;;;;;;5016013;28;20068;-74
2022/09/23 08:36:00;;;;;;;9.70;5.88;;;17.10;89.50;;;;;;5016129;28;20356;-73
2022/09/23 08:38:27;;;;;;;7.38;5.07;;;17.10;89.80;;;;;;5025794;28;20026;-73
2022/09/23 08:41:04;;;;;;;7.25;5.57;;;17.10;89.80;;;;;;5031828;28;20501;-72
2022/09/23 08:43:33;;;;;;;7.00;4.95;;;17.10;90.00;;;;;;5030665;28;20032;-74
2022/09/23 08:46:03;;;;;;;10.35;5.25;;;17.10;90.10;;;;;;5030273;28;20034;-74
2022/09/23 08:48:39;;;;;;;7.85;5.10;;;17.10;90.20;;;;;;5018062;28;20503;-73
2022/09/23 08:51:11;;;;;;;10.95;5.70;;;17.10;90.20;;;;;;5017287;28;20026;-72
2022/09/23 08:53:37;;;;;;;10.32;5.47;;;17.20;90.20;;;;;;5023348;28;20076;-72
2022/09/23 08:56:09;;;;;;;5.78;4.05;;;17.10;90.30;;;;;;5020014;28;20025;-72
2022/09/23 08:58:42;;;;;;;7.00;4.40;;;17.10;90.30;;;;;;5030729;28;20097;-73
2022/09/23 09:01:27;;;;;;;4.88;3.67;;;17.10;90.30;;;;;;5029488;28;20034;-71
2022/09/23 09:03:58;;;;;;;6.95;3.08;;;17.10;90.40;;;;;;5015330;28;20097;-71
2022/09/23 09:06:43;;;;;;;7.10;4.03;;;17.10;90.40;;;;;;5030237;28;20532;-72
2022/09/23 09:09:27;;;;;;;10.88;4.78;;;17.10;90.40;;;;;;5027013;28;20022;-73
2022/09/23 09:12:07;;;;;;;10.40;4.90;;;17.20;90.40;;;;;;5019929;28;20075;-72
2022/09/23 09:15:03;;;;;;;9.30;5.30;;;17.20;90.30;;;;;;5014650;28;20088;-71
2022/09/23 09:17:50;;;;;;;6.63;4.47;;;17.20;90.40;;;;;;5032560;28;20041;-72
2022/09/23 09:20:28;;;;;;;8.48;4.93;;;17.20;90.50;;;;;;5016456;28;20038;-72
2022/09/23 09:22:59;;;;;;;9.77;5.47;;;17.30;90.50;;;;;;5026441;28;20073;-71
2022/09/23 09:25:50;;;;;;;12.95;5.00;;;17.30;90.60;;;;;;5026433;28;20065;-72
2022/09/23 09:28:22;;;;;;;6.78;4.40;;;17.30;90.70;;;;;;5020750;28;20036;-73
2022/09/23 09:31:21;;;;;;;10.00;5.05;;;17.30;90.60;;;;;;5023311;28;20030;-71
2022/09/23 09:33:58;;;;;;;5.28;3.90;;;17.20;90.60;;;;;;5015302;28;20406;-72
2022/09/23 09:36:48;;;;;;;8.05;4.95;;;17.30;90.70;;;;;;5019189;28;20060;-72
2022/09/23 09:39:16;;;;;;;11.50;5.13;;;17.30;90.80;;;;;;5030620;28;20052;-74
2022/09/23 09:41:58;;;;;;;9.73;5.43;;;17.40;90.80;;;;;;5020022;28;20033;-71
2022/09/23 09:44:46;;;;;;;11.65;4.93;;;17.40;90.80;;;;;;5019789;28;20029;-72
2022/09/23 09:47:22;;;;;;;9.55;5.53;;;17.50;90.90;;;;;;5026975;28;20064;-71
2022/09/23 09:50:04;;;;;;;11.43;5.55;;;17.50;91.00;;;;;;5018812;28;20037;-73
2022/09/23 09:52:30;;;;;;;10.77;4.93;;;17.50;91.10;;;;;;5026421;28;20091;-74
2022/09/23 09:55:21;;;;;;;7.05;5.03;;;17.50;91.10;;;;;;5031967;28;20025;-73
2022/09/23 09:58:00;;;;;;;7.35;5.72;;;17.50;91.20;;;;;;5023930;28;20040;-74
2022/09/23 10:00:26;;;;;;;8.38;4.60;;;17.50;91.20;;;;;;5021728;28;20360;-72
2022/09/23 10:03:23;;;;;;;8.63;5.10;;;17.50;91.20;;;;;;5025253;28;20116;-72
2022/09/23 10:05:51;;;;;;;6.47;3.97;;;17.60;91.20;;;;;;5034945;28;20056;-74
2022/09/23 10:08:30;;;;;;;5.65;3.78;;;17.60;91.10;;;;;;5032899;28;20108;-72
2022/09/23 10:11:10;;;;;;;7.28;3.95;;;17.60;91.10;;;;;;5020912;28;20041;-73
2022/09/23 10:13:36;;;;;;;8.55;4.40;;;17.60;91.20;;;;;;5020245;28;20526;-74
2022/09/23 10:16:03;;;;;;;6.93;3.70;;;17.60;91.30;;;;;;5027351;28;20033;-74
2022/09/23 10:18:33;;;;;;;7.55;4.00;;;17.60;91.10;;;;;;5028771;28;20071;-72
2022/09/23 10:21:06;;;;;;;6.88;3.28;;;17.70;91.00;;;;;;5032264;28;20049;-73
2022/09/23 10:23:32;;;;;;;6.15;3.15;;;17.70;91.10;;;;;;5033117;28;20029;-73
2022/09/23 10:26:01;;;;;;;7.68;4.20;;;17.70;91.20;;;;;;5018799;28;20034;-72
2022/09/23 10:28:45;;;;;;;5.68;3.20;;;17.80;91.30;;;;;;5015859;28;20087;-72
2022/09/23 10:31:15;;;;;;;5.97;3.08;;;17.80;91.20;;;;;;5015823;28;20034;-72
2022/09/23 10:33:50;;;;;;;8.10;4.35;;;17.90;91.20;;;;;;5030140;28;20027;-72
2022/09/23 10:36:19;;;;;;;7.07;3.67;;;17.90;91.30;;;;;;5023562;28;20037;-73
2022/09/23 10:48:23;;;;;;;6.45;2.90;;;18.00;91.30;;;;;;5024814;28;20119;-73
2022/09/23 10:50:52;;;;;;;7.68;4.03;;;18.00;91.30;;;;;;5016807;28;20029;-72
2022/09/23 10:53:42;;;;;;;7.57;3.50;;;18.00;91.30;;;;;;5015924;28;20029;-72
2022/09/23 10:56:46;;;;;;;5.88;3.38;;;18.00;91.30;;;;;;5022417;28;20479;-72
2022/09/23 10:59:29;;;;;;;7.85;3.83;;;18.10;91.40;;;;;;5015667;28;20042;-73
2022/09/23 11:02:04;;;;;;;7.63;3.08;;;18.10;91.40;;;;;;5031903;28;20425;-73
2022/09/23 11:04:51;;;;;;;9.25;3.10;;;18.10;91.30;;;;;;5016568;28;20042;-73
2022/09/23 11:08:08;;;;;;;10.20;3.80;;;18.20;91.40;;;;;;5023989;28;20095;-72
2022/09/23 11:11:18;;;;;;;6.32;3.72;;;18.20;91.40;;;;;;5015223;28;20073;-72
2022/09/23 11:14:17;;;;;;;5.82;2.95;;;18.20;91.40;;;;;;5026427;28;20134;-72
2022/09/23 11:16:48;;;;;;;5.70;3.28;;;18.30;91.50;;;;;;5026502;28;20392;-72
2022/09/23 11:19:35;;;;;;;6.65;3.38;;;18.30;91.50;;;;;;5034693;28;20044;-72
2022/09/23 11:22:36;;;;;;;7.03;3.50;;;18.30;91.50;;;;;;5033433;28;20033;-72
2022/09/23 11:25:20;;;;;;;7.22;3.25;;;18.40;91.40;;;;;;5013551;28;20387;-72
2022/09/23 11:28:25;;;;;;;11.55;3.42;;;18.40;91.40;;;;;;5031858;28;20029;-72
2022/09/23 11:31:33;;;;;;;9.93;3.95;;;18.40;91.50;;;;;;5019743;28;20033;-71
2022/09/23 11:34:41;;;;;;;12.05;3.88;;;18.40;91.60;;;;;;4995513;28;20136;-73
2022/09/23 11:37:19;;;;;;;8.07;3.83;;;18.40;91.60;;;;;;5014369;28;20043;-72
2022/09/23 11:39:49;;;;;;;9.80;3.50;;;18.40;91.60;;;;;;5024045;28;20104;-72
2022/09/23 11:42:30;;;;;;;12.63;4.05;;;18.50;91.50;;;;;;5022922;28;20059;-72
2022/09/23 11:45:07;;;;;;;8.35;3.85;;;18.50;91.60;;;;;;5021701;28;20057;-72
2022/09/23 11:47:43;;;;;;;15.05;4.15;;;18.50;91.60;;;;;;5030826;28;20148;-73
2022/09/23 11:50:21;;;;;;;12.80;4.15;;;18.60;91.60;;;;;;5025048;28;20025;-74
2022/09/23 11:52:55;;;;;;;12.52;3.85;;;18.60;91.60;;;;;;5023136;28;20026;-74
2022/09/23 11:55:31;;;;;;;9.85;3.25;;;18.70;91.70;;;;;;5023416;28;20038;-72
2022/09/23 11:57:59;;;;;;;15.13;4.03;;;18.60;91.70;;;;;;5031119;28;20339;-72
2022/09/23 12:00:33;;;;;;;11.38;3.60;;;18.70;91.80;;;;;;5032374;28;20037;-73
2022/09/23 12:03:01;;;;;;;13.07;3.60;;;18.60;91.80;;;;;;5032798;28;20099;-72
2022/09/23 12:05:37;;;;;;;16.88;3.40;;;18.70;91.80;;;;;;5028051;28;20029;-72
2022/09/23 12:08:17;;;;;;;13.48;3.67;;;18.70;91.80;;;;;;5017421;28;20029;-73
2022/09/23 12:10:54;;;;;;;7.95;2.97;;;18.70;91.80;;;;;;5024127;28;20040;-73
2022/09/23 12:13:44;;;;;;;13.75;4.03;;;18.70;91.80;;;;;;5030364;28;20026;-72
2022/09/23 12:16:37;;;;;;;17.23;3.40;;;18.70;91.80;;;;;;5016330;28;20045;-72
2022/09/23 12:19:03;;;;;;;31.80;6.10;;;18.80;91.80;;;;;;5020021;28;20056;-72
2022/09/23 12:22:03;;;;;;;10.48;3.58;;;18.80;91.80;;;;;;5027833;28;20033;-73
2022/09/23 12:24:35;;;;;;;8.73;3.10;;;18.80;91.80;;;;;;5017913;28;20092;-72
2022/09/23 12:27:05;;;;;;;8.15;2.95;;;18.80;91.80;;;;;;5021436;28;21360;-72
2022/09/23 12:29:34;;;;;;;9.75;3.70;;;18.80;91.80;;;;;;5031842;28;20109;-72
2022/09/23 12:32:00;;;;;;;7.88;3.05;;;18.90;91.70;;;;;;5035664;28;20104;-73
2022/09/23 12:34:38;;;;;;;9.27;3.10;;;18.90;91.70;;;;;;5032220;28;20482;-72
2022/09/23 12:37:04;;;;;;;7.15;3.25;;;18.90;91.70;;;;;;5025625;28;20033;-72
2022/09/23 12:39:31;;;;;;;6.22;3.35;;;18.90;91.70;;;;;;5031410;28;20025;-72
2022/09/23 12:42:04;;;;;;;41.85;9.90;;;19.00;91.70;;;;;;5028779;28;20386;-73
2022/09/23 12:44:40;;;;;;;10.63;3.80;;;19.00;91.60;;;;;;5015653;28;20061;-73
2022/09/23 12:47:19;;;;;;;9.50;3.22;;;19.00;91.60;;;;;;5015989;28;20045;-73
2022/09/23 12:49:46;;;;;;;4.63;2.83;;;19.10;91.50;;;;;;5014519;28;20112;-72
2022/09/23 12:52:15;;;;;;;8.02;2.83;;;19.10;91.50;;;;;;5019371;28;20026;-71
2022/09/23 12:54:45;;;;;;;8.38;2.53;;;19.10;91.40;;;;;;5024772;28;20034;-72
2022/09/23 12:57:12;;;;;;;7.70;2.80;;;19.10;91.30;;;;;;5022251;28;20030;-73
2022/09/23 12:59:51;;;;;;;7.90;2.97;;;19.20;91.20;;;;;;5030576;28;20085;-72
2022/09/23 13:02:27;;;;;;;8.00;2.55;;;19.20;91.20;;;;;;5044363;28;20071;-72
2022/09/23 13:07:57;;;;;;;7.40;2.67;;;19.20;91.20;;;;;;5037774;28;20041;-72
2022/09/23 13:10:31;;;;;;;5.65;3.00;;;19.20;91.10;;;;;;5028137;28;20160;-72
2022/09/23 13:12:58;;;;;;;7.28;2.90;;;19.30;91.10;;;;;;5018157;28;20025;-72
2022/09/23 13:15:27;;;;;;;7.32;2.22;;;19.30;91.00;;;;;;5023139;28;20033;-73
2022/09/23 13:18:16;;;;;;;6.25;2.20;;;19.30;90.90;;;;;;5023703;28;20026;-72
2022/09/23 13:20:41;;;;;;;5.82;2.47;;;19.30;90.90;;;;;;5020870;28;20113;-72
2022/09/23 13:23:11;;;;;;;6.03;2.50;;;19.30;90.80;;;;;;5025080;28;20117;-72
2022/09/23 13:25:40;;;;;;;7.93;2.78;;;19.40;90.90;;;;;;5013575;28;20427;-72